sensor_id;sensor_type;location;lat;lon;timestamp;P1;durP1;ratioP1;P2;durP2;ratioP2
31382;SDS011;18014;49.228;11.102;2024-02-21T00:01:46;9.20;;;4.50;;
31382;SDS011;18014;49.228;11.102;2024-02-21T00:03:47;10.13;;;4.53;;
31382;SDS011;18014;49.228;11.102;2024-02-21T00:05:48;10.82;;;4.22;;
31382;SDS011;18014;49.228;11.102;2024-02-21T00:07:49;10.60;;;4.40;;
31382;SDS011;18014;49.228;11.102;2024-02-21T00:09:50;9.13;;;4.57;;
31382;SDS011;18014;49.228;11.102;2024-02-21T00:11:51;9.30;;;4.57;;
31382;SDS011;18014;49.228;11.102;2024-02-21T00:13:52;8.75;;;4.47;;
31382;SDS011;18014;49.228;11.102;2024-02-21T00:15:52;8.48;;;4.05;;
31382;SDS011;18014;49.228;11.102;2024-02-21T00:17:56;13.02;;;5.20;;
31382;SDS011;18014;49.228;11.102;2024-02-21T00:19:57;11.65;;;4.32;;
31382;SDS011;18014;49.228;11.102;2024-02-21T00:22:00;8.25;;;4.38;;
31382;SDS011;18014;49.228;11.102;2024-02-21T00:24:01;14.45;;;4.53;;
31382;SDS011;18014;49.228;11.102;2024-02-21T00:26:02;13.05;;;4.22;;
31382;SDS011;18014;49.228;11.102;2024-02-21T00:28:03;10.68;;;4.45;;
31382;SDS011;18014;49.228;11.102;2024-02-21T00:30:06;11.10;;;4.43;;
31382;SDS011;18014;49.228;11.102;2024-02-21T00:32:07;9.93;;;4.50;;
31382;SDS011;18014;49.228;11.102;2024-02-21T00:34:08;10.80;;;4.35;;
31382;SDS011;18014;49.228;11.102;2024-02-21T00:36:10;8.45;;;3.50;;
31382;SDS011;18014;49.228;11.102;2024-02-21T00:38:14;10.40;;;4.10;;
31382;SDS011;18014;49.228;11.102;2024-02-21T00:40:15;13.18;;;4.90;;
31382;SDS011;18014;49.228;11.102;2024-02-21T00:42:20;11.63;;;4.47;;
31382;SDS011;18014;49.228;11.102;2024-02-21T00:44:21;12.13;;;4.38;;
31382;SDS011;18014;49.228;11.102;2024-02-21T00:46:22;12.30;;;4.28;;
31382;SDS011;18014;49.228;11.102;2024-02-21T00:48:23;11.45;;;4.15;;
31382;SDS011;18014;49.228;11.102;2024-02-21T00:50:24;11.45;;;4.18;;
31382;SDS011;18014;49.228;11.102;2024-02-21T00:52:25;14.80;;;4.40;;
31382;SDS011;18014;49.228;11.102;2024-02-21T00:54:26;13.25;;;4.95;;
31382;SDS011;18014;49.228;11.102;2024-02-21T00:56:27;15.23;;;4.25;;
31382;SDS011;18014;49.228;11.102;2024-02-21T00:58:28;13.38;;;4.97;;
31382;SDS011;18014;49.228;11.102;2024-02-21T01:00:28;13.95;;;4.88;;
31382;SDS011;18014;49.228;11.102;2024-02-21T01:02:29;11.82;;;4.47;;
31382;SDS011;18014;49.228;11.102;2024-02-21T01:04:34;12.63;;;4.57;;
31382;SDS011;18014;49.228;11.102;2024-02-21T01:06:35;9.60;;;4.15;;
31382;SDS011;18014;49.228;11.102;2024-02-21T01:08:36;14.30;;;4.65;;
31382;SDS011;18014;49.228;11.102;2024-02-21T01:10:37;10.65;;;4.00;;
31382;SDS011;18014;49.228;11.102;2024-02-21T01:12:38;11.82;;;4.25;;
31382;SDS011;18014;49.228;11.102;2024-02-21T01:14:39;10.93;;;4.20;;
31382;SDS011;18014;49.228;11.102;2024-02-21T01:16:40;20.48;;;4.85;;
31382;SDS011;18014;49.228;11.102;2024-02-21T01:18:41;10.38;;;4.15;;
31382;SDS011;18014;49.228;11.102;2024-02-21T01:20:42;14.32;;;4.75;;
31382;SDS011;18014;49.228;11.102;2024-02-21T01:22:43;14.65;;;4.55;;
31382;SDS011;18014;49.228;11.102;2024-02-21T01:24:44;13.38;;;4.45;;
31382;SDS011;18014;49.228;11.102;2024-02-21T01:26:45;14.65;;;4.72;;
31382;SDS011;18014;49.228;11.102;2024-02-21T01:28:46;10.23;;;4.35;;
31382;SDS011;18014;49.228;11.102;2024-02-21T01:30:47;13.30;;;4.55;;
31382;SDS011;18014;49.228;11.102;2024-02-21T01:32:48;15.95;;;5.35;;
31382;SDS011;18014;49.228;11.102;2024-02-21T01:34:50;15.90;;;5.78;;
31382;SDS011;18014;49.228;11.102;2024-02-21T01:36:51;14.05;;;4.63;;
31382;SDS011;18014;49.228;11.102;2024-02-21T01:38:52;15.27;;;5.07;;
31382;SDS011;18014;49.228;11.102;2024-02-21T01:40:53;11.07;;;4.30;;
31382;SDS011;18014;49.228;11.102;2024-02-21T01:42:55;12.18;;;4.80;;
31382;SDS011;18014;49.228;11.102;2024-02-21T01:44:56;13.50;;;6.13;;
31382;SDS011;18014;49.228;11.102;2024-02-21T01:46:57;8.30;;;4.05;;
31382;SDS011;18014;49.228;11.102;2024-02-21T01:48:58;8.07;;;4.15;;
31382;SDS011;18014;49.228;11.102;2024-02-21T01:50:59;14.93;;;5.15;;
31382;SDS011;18014;49.228;11.102;2024-02-21T01:53:01;10.50;;;3.87;;
31382;SDS011;18014;49.228;11.102;2024-02-21T01:55:03;11.85;;;4.35;;
31382;SDS011;18014;49.228;11.102;2024-02-21T01:57:05;7.30;;;3.70;;
31382;SDS011;18014;49.228;11.102;2024-02-21T01:59:06;17.75;;;5.38;;
31382;SDS011;18014;49.228;11.102;2024-02-21T02:01:07;11.52;;;4.50;;
31382;SDS011;18014;49.228;11.102;2024-02-21T02:03:12;8.68;;;3.90;;
31382;SDS011;18014;49.228;11.102;2024-02-21T02:05:19;12.82;;;4.68;;
31382;SDS011;18014;49.228;11.102;2024-02-21T02:07:21;18.00;;;5.15;;
31382;SDS011;18014;49.228;11.102;2024-02-21T02:09:22;10.23;;;4.57;;
31382;SDS011;18014;49.228;11.102;2024-02-21T02:11:23;11.63;;;4.75;;
31382;SDS011;18014;49.228;11.102;2024-02-21T02:13:24;10.48;;;3.90;;
31382;SDS011;18014;49.228;11.102;2024-02-21T02:15:25;11.48;;;4.47;;
31382;SDS011;18014;49.228;11.102;2024-02-21T02:17:26;14.45;;;4.50;;
31382;SDS011;18014;49.228;11.102;2024-02-21T02:19:27;12.27;;;5.10;;
31382;SDS011;18014;49.228;11.102;2024-02-21T02:21:32;12.82;;;4.72;;
31382;SDS011;18014;49.228;11.102;2024-02-21T02:23:39;13.45;;;4.45;;
31382;SDS011;18014;49.228;11.102;2024-02-21T02:25:41;12.70;;;4.27;;
31382;SDS011;18014;49.228;11.102;2024-02-21T02:27:42;12.05;;;4.60;;
31382;SDS011;18014;49.228;11.102;2024-02-21T02:29:45;9.45;;;4.13;;
31382;SDS011;18014;49.228;11.102;2024-02-21T02:31:46;12.73;;;4.03;;
31382;SDS011;18014;49.228;11.102;2024-02-21T02:33:47;13.60;;;4.55;;
31382;SDS011;18014;49.228;11.102;2024-02-21T02:35:48;14.27;;;4.35;;
31382;SDS011;18014;49.228;11.102;2024-02-21T02:37:49;12.48;;;4.50;;
31382;SDS011;18014;49.228;11.102;2024-02-21T02:39:50;8.93;;;4.00;;
31382;SDS011;18014;49.228;11.102;2024-02-21T02:41:51;15.05;;;4.60;;
31382;SDS011;18014;49.228;11.102;2024-02-21T02:43:52;12.35;;;4.53;;
31382;SDS011;18014;49.228;11.102;2024-02-21T02:45:53;9.13;;;4.25;;
31382;SDS011;18014;49.228;11.102;2024-02-21T02:47:55;11.52;;;4.40;;
31382;SDS011;18014;49.228;11.102;2024-02-21T02:49:57;8.77;;;3.67;;
31382;SDS011;18014;49.228;11.102;2024-02-21T02:51:57;10.35;;;4.07;;
31382;SDS011;18014;49.228;11.102;2024-02-21T02:53:58;11.68;;;4.10;;
31382;SDS011;18014;49.228;11.102;2024-02-21T02:55:59;10.07;;;4.57;;
31382;SDS011;18014;49.228;11.102;2024-02-21T02:58:00;8.73;;;3.97;;
31382;SDS011;18014;49.228;11.102;2024-02-21T03:00:01;16.83;;;4.25;;
31382;SDS011;18014;49.228;11.102;2024-02-21T03:02:03;13.88;;;4.82;;
31382;SDS011;18014;49.228;11.102;2024-02-21T03:04:04;11.77;;;4.10;;
31382;SDS011;18014;49.228;11.102;2024-02-21T03:06:05;13.45;;;4.28;;
31382;SDS011;18014;49.228;11.102;2024-02-21T03:08:06;15.10;;;4.25;;
31382;SDS011;18014;49.228;11.102;2024-02-21T03:10:08;11.77;;;3.83;;
31382;SDS011;18014;49.228;11.102;2024-02-21T03:12:09;12.77;;;4.00;;
31382;SDS011;18014;49.228;11.102;2024-02-21T03:14:11;12.00;;;3.65;;
31382;SDS011;18014;49.228;11.102;2024-02-21T03:16:12;12.52;;;4.28;;
31382;SDS011;18014;49.228;11.102;2024-02-21T03:18:16;10.50;;;3.75;;
31382;SDS011;18014;49.228;11.102;2024-02-21T03:20:17;10.02;;;4.05;;
31382;SDS011;18014;49.228;11.102;2024-02-21T03:22:19;13.23;;;4.60;;
31382;SDS011;18014;49.228;11.102;2024-02-21T03:24:20;12.50;;;3.90;;
31382;SDS011;18014;49.228;11.102;2024-02-21T03:26:22;6.53;;;3.53;;
31382;SDS011;18014;49.228;11.102;2024-02-21T03:28:22;10.15;;;3.80;;
31382;SDS011;18014;49.228;11.102;2024-02-21T03:30:23;8.43;;;3.80;;
31382;SDS011;18014;49.228;11.102;2024-02-21T03:32:24;12.57;;;4.05;;
31382;SDS011;18014;49.228;11.102;2024-02-21T03:34:25;13.80;;;4.03;;
31382;SDS011;18014;49.228;11.102;2024-02-21T03:36:26;7.03;;;3.17;;
31382;SDS011;18014;49.228;11.102;2024-02-21T03:38:28;12.60;;;4.03;;
31382;SDS011;18014;49.228;11.102;2024-02-21T03:40:29;10.70;;;3.72;;
31382;SDS011;18014;49.228;11.102;2024-02-21T03:42:30;8.60;;;3.80;;
31382;SDS011;18014;49.228;11.102;2024-02-21T03:44:31;9.25;;;4.25;;
31382;SDS011;18014;49.228;11.102;2024-02-21T03:46:33;9.32;;;2.67;;
31382;SDS011;18014;49.228;11.102;2024-02-21T03:48:34;11.85;;;3.47;;
31382;SDS011;18014;49.228;11.102;2024-02-21T03:50:35;8.48;;;3.75;;
31382;SDS011;18014;49.228;11.102;2024-02-21T03:52:36;9.88;;;4.22;;
31382;SDS011;18014;49.228;11.102;2024-02-21T03:54:37;12.07;;;4.20;;
31382;SDS011;18014;49.228;11.102;2024-02-21T03:56:38;12.15;;;4.20;;
31382;SDS011;18014;49.228;11.102;2024-02-21T03:58:42;7.53;;;3.60;;
31382;SDS011;18014;49.228;11.102;2024-02-21T04:00:43;10.43;;;3.50;;
31382;SDS011;18014;49.228;11.102;2024-02-21T04:02:44;12.25;;;4.03;;
31382;SDS011;18014;49.228;11.102;2024-02-21T04:04:44;5.60;;;3.45;;
31382;SDS011;18014;49.228;11.102;2024-02-21T04:06:49;11.90;;;3.85;;
31382;SDS011;18014;49.228;11.102;2024-02-21T04:08:50;9.70;;;4.65;;
31382;SDS011;18014;49.228;11.102;2024-02-21T04:10:51;12.05;;;3.95;;
31382;SDS011;18014;49.228;11.102;2024-02-21T04:12:52;9.25;;;3.80;;
31382;SDS011;18014;49.228;11.102;2024-02-21T04:14:53;12.13;;;3.83;;
31382;SDS011;18014;49.228;11.102;2024-02-21T04:16:54;8.00;;;3.67;;
31382;SDS011;18014;49.228;11.102;2024-02-21T04:18:55;11.05;;;4.15;;
31382;SDS011;18014;49.228;11.102;2024-02-21T04:20:55;12.98;;;3.60;;
31382;SDS011;18014;49.228;11.102;2024-02-21T04:22:56;11.77;;;3.78;;
31382;SDS011;18014;49.228;11.102;2024-02-21T04:24:59;8.82;;;4.00;;
31382;SDS011;18014;49.228;11.102;2024-02-21T04:29:01;14.13;;;4.18;;
31382;SDS011;18014;49.228;11.102;2024-02-21T04:31:02;10.32;;;3.45;;
31382;SDS011;18014;49.228;11.102;2024-02-21T04:33:03;9.10;;;3.47;;
31382;SDS011;18014;49.228;11.102;2024-02-21T04:35:04;10.90;;;3.80;;
31382;SDS011;18014;49.228;11.102;2024-02-21T04:37:07;10.40;;;3.70;;
31382;SDS011;18014;49.228;11.102;2024-02-21T04:39:07;10.15;;;3.50;;
31382;SDS011;18014;49.228;11.102;2024-02-21T04:41:08;7.18;;;3.47;;
31382;SDS011;18014;49.228;11.102;2024-02-21T04:43:09;16.38;;;3.92;;
31382;SDS011;18014;49.228;11.102;2024-02-21T04:45:10;17.52;;;4.53;;
31382;SDS011;18014;49.228;11.102;2024-02-21T04:47:11;8.93;;;3.70;;
31382;SDS011;18014;49.228;11.102;2024-02-21T04:49:12;9.73;;;3.35;;
31382;SDS011;18014;49.228;11.102;2024-02-21T04:51:13;11.68;;;4.07;;
31382;SDS011;18014;49.228;11.102;2024-02-21T04:53:14;9.07;;;3.92;;
31382;SDS011;18014;49.228;11.102;2024-02-21T04:55:16;12.73;;;3.63;;
31382;SDS011;18014;49.228;11.102;2024-02-21T04:57:16;11.48;;;3.92;;
31382;SDS011;18014;49.228;11.102;2024-02-21T04:59:17;9.25;;;3.65;;
31382;SDS011;18014;49.228;11.102;2024-02-21T05:01:18;13.68;;;3.58;;
31382;SDS011;18014;49.228;11.102;2024-02-21T05:03:32;12.57;;;3.90;;
31382;SDS011;18014;49.228;11.102;2024-02-21T05:05:33;12.02;;;3.58;;
31382;SDS011;18014;49.228;11.102;2024-02-21T05:07:34;9.45;;;4.10;;
31382;SDS011;18014;49.228;11.102;2024-02-21T05:09:35;9.80;;;4.13;;
31382;SDS011;18014;49.228;11.102;2024-02-21T05:11:36;9.35;;;3.83;;
31382;SDS011;18014;49.228;11.102;2024-02-21T05:13:37;11.52;;;3.90;;
31382;SDS011;18014;49.228;11.102;2024-02-21T05:15:38;12.80;;;4.20;;
31382;SDS011;18014;49.228;11.102;2024-02-21T05:17:40;7.78;;;3.83;;
31382;SDS011;18014;49.228;11.102;2024-02-21T05:19:42;7.57;;;3.80;;
31382;SDS011;18014;49.228;11.102;2024-02-21T05:21:43;9.60;;;3.60;;
31382;SDS011;18014;49.228;11.102;2024-02-21T05:23:44;7.65;;;4.15;;
31382;SDS011;18014;49.228;11.102;2024-02-21T05:25:45;9.35;;;3.47;;
31382;SDS011;18014;49.228;11.102;2024-02-21T05:27:46;10.43;;;3.83;;
31382;SDS011;18014;49.228;11.102;2024-02-21T05:29:48;18.33;;;4.18;;
31382;SDS011;18014;49.228;11.102;2024-02-21T05:33:56;8.13;;;3.80;;
31382;SDS011;18014;49.228;11.102;2024-02-21T05:35:57;8.85;;;3.42;;
31382;SDS011;18014;49.228;11.102;2024-02-21T05:37:58;13.52;;;4.03;;
31382;SDS011;18014;49.228;11.102;2024-02-21T05:39:59;9.40;;;4.05;;
31382;SDS011;18014;49.228;11.102;2024-02-21T05:42:00;12.05;;;4.10;;
31382;SDS011;18014;49.228;11.102;2024-02-21T05:44:01;9.98;;;4.03;;
31382;SDS011;18014;49.228;11.102;2024-02-21T05:46:02;11.30;;;4.30;;
31382;SDS011;18014;49.228;11.102;2024-02-21T05:48:04;12.85;;;4.30;;
31382;SDS011;18014;49.228;11.102;2024-02-21T05:50:05;13.43;;;4.53;;
31382;SDS011;18014;49.228;11.102;2024-02-21T05:52:06;8.93;;;3.70;;
31382;SDS011;18014;49.228;11.102;2024-02-21T05:54:07;15.50;;;4.63;;
31382;SDS011;18014;49.228;11.102;2024-02-21T05:56:11;11.00;;;4.70;;
31382;SDS011;18014;49.228;11.102;2024-02-21T05:58:12;13.02;;;4.00;;
31382;SDS011;18014;49.228;11.102;2024-02-21T06:00:13;10.05;;;4.72;;
31382;SDS011;18014;49.228;11.102;2024-02-21T06:02:15;10.00;;;4.05;;
31382;SDS011;18014;49.228;11.102;2024-02-21T06:04:16;10.00;;;4.38;;
31382;SDS011;18014;49.228;11.102;2024-02-21T06:06:17;13.20;;;4.50;;
31382;SDS011;18014;49.228;11.102;2024-02-21T06:08:18;11.77;;;4.60;;
31382;SDS011;18014;49.228;11.102;2024-02-21T06:10:20;12.65;;;4.60;;
31382;SDS011;18014;49.228;11.102;2024-02-21T06:12:21;10.98;;;4.38;;
31382;SDS011;18014;49.228;11.102;2024-02-21T06:14:22;6.40;;;3.67;;
31382;SDS011;18014;49.228;11.102;2024-02-21T06:16:23;10.32;;;4.32;;
31382;SDS011;18014;49.228;11.102;2024-02-21T06:18:24;10.18;;;4.80;;
31382;SDS011;18014;49.228;11.102;2024-02-21T06:20:25;9.43;;;4.32;;
31382;SDS011;18014;49.228;11.102;2024-02-21T06:22:26;11.60;;;4.82;;
31382;SDS011;18014;49.228;11.102;2024-02-21T06:24:27;8.32;;;4.43;;
31382;SDS011;18014;49.228;11.102;2024-02-21T06:26:28;14.45;;;4.40;;
31382;SDS011;18014;49.228;11.102;2024-02-21T06:28:29;11.88;;;4.30;;
31382;SDS011;18014;49.228;11.102;2024-02-21T06:30:30;11.07;;;4.70;;
31382;SDS011;18014;49.228;11.102;2024-02-21T06:32:31;11.98;;;4.47;;
31382;SDS011;18014;49.228;11.102;2024-02-21T06:34:32;12.93;;;5.07;;
31382;SDS011;18014;49.228;11.102;2024-02-21T06:36:32;13.98;;;4.45;;
31382;SDS011;18014;49.228;11.102;2024-02-21T06:38:33;16.88;;;4.80;;
31382;SDS011;18014;49.228;11.102;2024-02-21T06:40:34;12.98;;;4.60;;
31382;SDS011;18014;49.228;11.102;2024-02-21T06:42:39;10.45;;;4.88;;
31382;SDS011;18014;49.228;11.102;2024-02-21T06:44:40;15.82;;;5.28;;
31382;SDS011;18014;49.228;11.102;2024-02-21T06:46:41;14.40;;;5.25;;
31382;SDS011;18014;49.228;11.102;2024-02-21T06:48:42;13.13;;;4.85;;
31382;SDS011;18014;49.228;11.102;2024-02-21T06:50:43;11.52;;;4.75;;
31382;SDS011;18014;49.228;11.102;2024-02-21T06:52:44;16.05;;;5.40;;
31382;SDS011;18014;49.228;11.102;2024-02-21T06:54:45;13.07;;;5.50;;
31382;SDS011;18014;49.228;11.102;2024-02-21T06:56:53;12.20;;;4.85;;
31382;SDS011;18014;49.228;11.102;2024-02-21T06:58:54;9.60;;;4.82;;
31382;SDS011;18014;49.228;11.102;2024-02-21T07:00:55;11.57;;;4.57;;
31382;SDS011;18014;49.228;11.102;2024-02-21T07:02:56;14.98;;;5.60;;
31382;SDS011;18014;49.228;11.102;2024-02-21T07:04:58;17.55;;;5.72;;
31382;SDS011;18014;49.228;11.102;2024-02-21T07:06:59;13.93;;;4.78;;
31382;SDS011;18014;49.228;11.102;2024-02-21T07:09:00;13.50;;;5.45;;
31382;SDS011;18014;49.228;11.102;2024-02-21T07:11:01;9.30;;;5.22;;
31382;SDS011;18014;49.228;11.102;2024-02-21T07:13:01;14.90;;;5.60;;
31382;SDS011;18014;49.228;11.102;2024-02-21T07:15:03;12.07;;;5.03;;
31382;SDS011;18014;49.228;11.102;2024-02-21T07:17:04;21.60;;;6.40;;
31382;SDS011;18014;49.228;11.102;2024-02-21T07:19:05;10.55;;;5.03;;
31382;SDS011;18014;49.228;11.102;2024-02-21T07:21:06;11.85;;;5.13;;
31382;SDS011;18014;49.228;11.102;2024-02-21T07:23:08;10.55;;;5.28;;
31382;SDS011;18014;49.228;11.102;2024-02-21T07:25:09;12.45;;;5.53;;
31382;SDS011;18014;49.228;11.102;2024-02-21T07:27:10;10.30;;;4.88;;
31382;SDS011;18014;49.228;11.102;2024-02-21T07:29:11;11.35;;;4.40;;
31382;SDS011;18014;49.228;11.102;2024-02-21T07:31:12;11.68;;;5.43;;
31382;SDS011;18014;49.228;11.102;2024-02-21T07:33:13;19.85;;;5.60;;
31382;SDS011;18014;49.228;11.102;2024-02-21T07:35:14;7.57;;;4.93;;
31382;SDS011;18014;49.228;11.102;2024-02-21T07:37:15;12.50;;;4.45;;
31382;SDS011;18014;49.228;11.102;2024-02-21T07:39:16;12.10;;;4.78;;
31382;SDS011;18014;49.228;11.102;2024-02-21T07:41:17;13.95;;;4.82;;
31382;SDS011;18014;49.228;11.102;2024-02-21T07:43:18;14.40;;;5.10;;
31382;SDS011;18014;49.228;11.102;2024-02-21T07:45:19;9.90;;;4.10;;
31382;SDS011;18014;49.228;11.102;2024-02-21T07:47:23;9.60;;;4.32;;
31382;SDS011;18014;49.228;11.102;2024-02-21T07:49:24;9.25;;;4.50;;
31382;SDS011;18014;49.228;11.102;2024-02-21T07:51:27;9.73;;;4.07;;
31382;SDS011;18014;49.228;11.102;2024-02-21T07:55:29;11.88;;;4.80;;
31382;SDS011;18014;49.228;11.102;2024-02-21T07:57:30;11.95;;;4.53;;
31382;SDS011;18014;49.228;11.102;2024-02-21T07:59:31;12.73;;;3.88;;
31382;SDS011;18014;49.228;11.102;2024-02-21T08:01:32;14.10;;;4.90;;
31382;SDS011;18014;49.228;11.102;2024-02-21T08:03:33;13.45;;;4.22;;
31382;SDS011;18014;49.228;11.102;2024-02-21T08:05:34;10.80;;;3.83;;
31382;SDS011;18014;49.228;11.102;2024-02-21T08:07:35;13.57;;;4.38;;
31382;SDS011;18014;49.228;11.102;2024-02-21T08:09:36;6.85;;;3.65;;
31382;SDS011;18014;49.228;11.102;2024-02-21T08:11:39;12.23;;;3.67;;
31382;SDS011;18014;49.228;11.102;2024-02-21T08:13:40;6.63;;;3.35;;
31382;SDS011;18014;49.228;11.102;2024-02-21T08:15:41;9.45;;;3.92;;
31382;SDS011;18014;49.228;11.102;2024-02-21T08:17:42;7.68;;;3.40;;
31382;SDS011;18014;49.228;11.102;2024-02-21T08:19:43;10.10;;;3.50;;
31382;SDS011;18014;49.228;11.102;2024-02-21T08:21:44;11.57;;;3.58;;
31382;SDS011;18014;49.228;11.102;2024-02-21T08:23:46;10.98;;;4.03;;
31382;SDS011;18014;49.228;11.102;2024-02-21T08:25:51;11.73;;;3.60;;
31382;SDS011;18014;49.228;11.102;2024-02-21T08:27:55;9.98;;;3.20;;
31382;SDS011;18014;49.228;11.102;2024-02-21T08:29:57;9.13;;;3.40;;
31382;SDS011;18014;49.228;11.102;2024-02-21T08:31:58;6.32;;;3.08;;
31382;SDS011;18014;49.228;11.102;2024-02-21T08:34:00;9.07;;;3.92;;
31382;SDS011;18014;49.228;11.102;2024-02-21T08:36:04;8.00;;;3.80;;
31382;SDS011;18014;49.228;11.102;2024-02-21T08:38:05;9.05;;;3.72;;
31382;SDS011;18014;49.228;11.102;2024-02-21T08:40:06;6.00;;;2.78;;
31382;SDS011;18014;49.228;11.102;2024-02-21T08:42:08;9.82;;;3.13;;
31382;SDS011;18014;49.228;11.102;2024-02-21T08:44:09;8.05;;;3.47;;
31382;SDS011;18014;49.228;11.102;2024-02-21T08:46:10;4.82;;;2.97;;
31382;SDS011;18014;49.228;11.102;2024-02-21T08:48:11;9.02;;;3.65;;
31382;SDS011;18014;49.228;11.102;2024-02-21T08:50:12;8.07;;;3.08;;
31382;SDS011;18014;49.228;11.102;2024-02-21T08:52:13;6.38;;;3.00;;
31382;SDS011;18014;49.228;11.102;2024-02-21T08:54:14;9.15;;;3.40;;
31382;SDS011;18014;49.228;11.102;2024-02-21T08:56:15;7.07;;;3.38;;
31382;SDS011;18014;49.228;11.102;2024-02-21T08:58:17;7.97;;;2.63;;
31382;SDS011;18014;49.228;11.102;2024-02-21T09:00:18;10.77;;;3.53;;
31382;SDS011;18014;49.228;11.102;2024-02-21T09:02:24;6.97;;;2.67;;
31382;SDS011;18014;49.228;11.102;2024-02-21T09:04:25;6.32;;;2.83;;
31382;SDS011;18014;49.228;11.102;2024-02-21T09:06:26;7.22;;;3.05;;
31382;SDS011;18014;49.228;11.102;2024-02-21T09:08:28;7.88;;;3.00;;
31382;SDS011;18014;49.228;11.102;2024-02-21T09:10:29;5.53;;;2.47;;
31382;SDS011;18014;49.228;11.102;2024-02-21T09:12:30;7.88;;;2.63;;
31382;SDS011;18014;49.228;11.102;2024-02-21T09:14:32;8.57;;;2.47;;
31382;SDS011;18014;49.228;11.102;2024-02-21T09:16:33;11.13;;;3.27;;
31382;SDS011;18014;49.228;11.102;2024-02-21T09:18:34;7.45;;;2.90;;
31382;SDS011;18014;49.228;11.102;2024-02-21T09:20:35;11.60;;;2.83;;
31382;SDS011;18014;49.228;11.102;2024-02-21T09:22:36;11.05;;;2.30;;
31382;SDS011;18014;49.228;11.102;2024-02-21T09:24:39;6.78;;;1.92;;
31382;SDS011;18014;49.228;11.102;2024-02-21T09:26:40;8.30;;;2.25;;
31382;SDS011;18014;49.228;11.102;2024-02-21T09:28:42;5.80;;;2.50;;
31382;SDS011;18014;49.228;11.102;2024-02-21T09:30:44;11.60;;;2.90;;
31382;SDS011;18014;49.228;11.102;2024-02-21T09:32:46;3.10;;;1.98;;
31382;SDS011;18014;49.228;11.102;2024-02-21T09:34:47;10.50;;;2.30;;
31382;SDS011;18014;49.228;11.102;2024-02-21T09:36:48;7.82;;;2.38;;
31382;SDS011;18014;49.228;11.102;2024-02-21T09:38:48;7.28;;;1.75;;
31382;SDS011;18014;49.228;11.102;2024-02-21T09:40:55;6.63;;;2.53;;
31382;SDS011;18014;49.228;11.102;2024-02-21T09:43:04;7.68;;;2.13;;
31382;SDS011;18014;49.228;11.102;2024-02-21T09:45:22;8.10;;;2.38;;
31382;SDS011;18014;49.228;11.102;2024-02-21T09:47:24;5.18;;;1.77;;
31382;SDS011;18014;49.228;11.102;2024-02-21T09:49:43;5.55;;;1.92;;
31382;SDS011;18014;49.228;11.102;2024-02-21T09:51:45;7.50;;;2.60;;
31382;SDS011;18014;49.228;11.102;2024-02-21T09:53:49;6.53;;;1.67;;
31382;SDS011;18014;49.228;11.102;2024-02-21T09:55:52;7.88;;;2.47;;
31382;SDS011;18014;49.228;11.102;2024-02-21T09:57:53;11.13;;;2.80;;
31382;SDS011;18014;49.228;11.102;2024-02-21T09:59:55;5.03;;;2.03;;
31382;SDS011;18014;49.228;11.102;2024-02-21T10:01:59;9.00;;;2.47;;
31382;SDS011;18014;49.228;11.102;2024-02-21T10:04:00;6.18;;;2.33;;
31382;SDS011;18014;49.228;11.102;2024-02-21T10:06:03;3.35;;;1.73;;
31382;SDS011;18014;49.228;11.102;2024-02-21T10:08:04;7.00;;;2.35;;
31382;SDS011;18014;49.228;11.102;2024-02-21T10:10:05;6.72;;;2.03;;
31382;SDS011;18014;49.228;11.102;2024-02-21T10:12:10;10.48;;;2.88;;
31382;SDS011;18014;49.228;11.102;2024-02-21T10:14:11;5.03;;;1.80;;
31382;SDS011;18014;49.228;11.102;2024-02-21T10:16:12;5.07;;;1.65;;
31382;SDS011;18014;49.228;11.102;2024-02-21T10:18:13;6.28;;;1.80;;
31382;SDS011;18014;49.228;11.102;2024-02-21T10:20:18;9.60;;;2.38;;
31382;SDS011;18014;49.228;11.102;2024-02-21T10:22:19;5.20;;;2.08;;
31382;SDS011;18014;49.228;11.102;2024-02-21T10:24:26;7.85;;;1.90;;
31382;SDS011;18014;49.228;11.102;2024-02-21T10:26:27;6.68;;;1.90;;
31382;SDS011;18014;49.228;11.102;2024-02-21T10:28:28;3.58;;;1.33;;
31382;SDS011;18014;49.228;11.102;2024-02-21T10:30:29;7.97;;;2.03;;
31382;SDS011;18014;49.228;11.102;2024-02-21T10:32:30;6.28;;;2.00;;
31382;SDS011;18014;49.228;11.102;2024-02-21T10:34:31;11.32;;;2.42;;
31382;SDS011;18014;49.228;11.102;2024-02-21T10:36:33;5.22;;;2.13;;
31382;SDS011;18014;49.228;11.102;2024-02-21T10:38:35;5.90;;;2.30;;
31382;SDS011;18014;49.228;11.102;2024-02-21T10:40:37;8.38;;;1.90;;
31382;SDS011;18014;49.228;11.102;2024-02-21T10:42:38;3.58;;;1.40;;
31382;SDS011;18014;49.228;11.102;2024-02-21T10:44:40;12.75;;;1.77;;
31382;SDS011;18014;49.228;11.102;2024-02-21T10:46:41;2.78;;;1.33;;
31382;SDS011;18014;49.228;11.102;2024-02-21T10:48:44;7.15;;;1.58;;
31382;SDS011;18014;49.228;11.102;2024-02-21T10:50:56;8.65;;;2.20;;
31382;SDS011;18014;49.228;11.102;2024-02-21T10:53:08;10.02;;;2.08;;
31382;SDS011;18014;49.228;11.102;2024-02-21T10:55:31;5.07;;;2.13;;
31382;SDS011;18014;49.228;11.102;2024-02-21T10:57:41;4.60;;;1.30;;
31382;SDS011;18014;49.228;11.102;2024-02-21T10:59:44;4.70;;;1.85;;
31382;SDS011;18014;49.228;11.102;2024-02-21T11:01:47;5.88;;;1.67;;
31382;SDS011;18014;49.228;11.102;2024-02-21T11:03:49;5.40;;;1.58;;
31382;SDS011;18014;49.228;11.102;2024-02-21T11:05:52;5.03;;;1.90;;
31382;SDS011;18014;49.228;11.102;2024-02-21T11:07:54;5.65;;;1.42;;
31382;SDS011;18014;49.228;11.102;2024-02-21T11:09:55;2.58;;;1.30;;
31382;SDS011;18014;49.228;11.102;2024-02-21T11:11:56;5.93;;;1.58;;
31382;SDS011;18014;49.228;11.102;2024-02-21T11:14:05;6.15;;;1.58;;
31382;SDS011;18014;49.228;11.102;2024-02-21T11:16:23;4.75;;;1.30;;
31382;SDS011;18014;49.228;11.102;2024-02-21T11:18:24;6.78;;;1.65;;
31382;SDS011;18014;49.228;11.102;2024-02-21T11:20:32;5.57;;;1.23;;
31382;SDS011;18014;49.228;11.102;2024-02-21T11:22:40;3.58;;;1.42;;
31382;SDS011;18014;49.228;11.102;2024-02-21T11:24:42;3.25;;;1.35;;
31382;SDS011;18014;49.228;11.102;2024-02-21T11:26:43;5.57;;;1.70;;
31382;SDS011;18014;49.228;11.102;2024-02-21T11:28:56;7.03;;;2.00;;
31382;SDS011;18014;49.228;11.102;2024-02-21T11:31:13;7.72;;;1.95;;
31382;SDS011;18014;49.228;11.102;2024-02-21T11:33:14;3.67;;;1.52;;
31382;SDS011;18014;49.228;11.102;2024-02-21T11:35:20;5.68;;;1.85;;
31382;SDS011;18014;49.228;11.102;2024-02-21T11:37:21;4.70;;;1.42;;
31382;SDS011;18014;49.228;11.102;2024-02-21T11:39:26;5.10;;;1.20;;
31382;SDS011;18014;49.228;11.102;2024-02-21T11:41:27;7.05;;;1.45;;
31382;SDS011;18014;49.228;11.102;2024-02-21T11:43:28;2.10;;;1.17;;
31382;SDS011;18014;49.228;11.102;2024-02-21T11:45:29;3.15;;;1.80;;
31382;SDS011;18014;49.228;11.102;2024-02-21T11:47:32;5.10;;;1.63;;
31382;SDS011;18014;49.228;11.102;2024-02-21T11:49:36;3.28;;;1.50;;
31382;SDS011;18014;49.228;11.102;2024-02-21T11:51:41;4.85;;;1.60;;
31382;SDS011;18014;49.228;11.102;2024-02-21T11:53:42;5.60;;;2.08;;
31382;SDS011;18014;49.228;11.102;2024-02-21T11:55:45;2.80;;;1.77;;
31382;SDS011;18014;49.228;11.102;2024-02-21T11:57:49;4.40;;;2.03;;
31382;SDS011;18014;49.228;11.102;2024-02-21T11:59:51;4.43;;;1.35;;
31382;SDS011;18014;49.228;11.102;2024-02-21T12:01:54;3.63;;;1.35;;
31382;SDS011;18014;49.228;11.102;2024-02-21T12:03:56;7.43;;;1.60;;
31382;SDS011;18014;49.228;11.102;2024-02-21T12:05:57;3.80;;;1.20;;